Venetian Village, Illinois
Current Conditions -  °F | °C
As of 7:55 AM on Saturday 22 Nov 2014 (Local Time) from KUGN Reporting Station
Haze Haze  
Wind Chill: 28°   Ceiling: 300
Heat Index: 36°   Visibility: 1.5mi
Dew Point: 35°   Wind: 12mph
Humidity: 97%   Direction: 200°SSW
Pressure: 29.99"   Gusts: NA
Location:  42.4132°N, 88.0615°W
Report Text: KUGN 221355Z 20010KT 1 1/2SM BR OVC003 02/02 A2999 RMK AO2 SLP166 T00220017
Loading
Personal Weather Stations






























Interactive Weather Map New forecast layout! Learn more

10-Day Weather Forecast

Advertisements
Track Severe Weather on mobile